sensor_id;sensor_type;location;lat;lon;timestamp;pressure;altitude;pressure_sealevel;temperature;humidity
85319;BME280;75722;49.004;12.120;2024-02-15T00:00:11;98336.00;;;5.50;75.92
85319;BME280;75722;49.004;12.120;2024-02-15T00:02:37;98333.03;;;5.53;75.85
85319;BME280;75722;49.004;12.120;2024-02-15T00:05:02;98332.72;;;5.56;76.52
85319;BME280;75722;49.004;12.120;2024-02-15T00:07:28;98334.25;;;5.59;76.44
85319;BME280;75722;49.004;12.120;2024-02-15T00:09:53;98333.72;;;5.55;76.39
85319;BME280;75722;49.004;12.120;2024-02-15T00:12:21;98335.47;;;5.46;76.28
85319;BME280;75722;49.004;12.120;2024-02-15T00:14:46;98333.94;;;5.44;76.38
85319;BME280;75722;49.004;12.120;2024-02-15T00:17:12;98335.63;;;5.45;76.23
85319;BME280;75722;49.004;12.120;2024-02-15T00:19:38;98330.63;;;5.50;76.07
85319;BME280;75722;49.004;12.120;2024-02-15T00:22:06;98334.03;;;5.52;76.05
85319;BME280;75722;49.004;12.120;2024-02-15T00:24:32;98327.50;;;5.55;76.12
85319;BME280;75722;49.004;12.120;2024-02-15T00:26:57;98338.25;;;5.55;76.00
85319;BME280;75722;49.004;12.120;2024-02-15T00:29:23;98335.03;;;5.51;76.06
85319;BME280;75722;49.004;12.120;2024-02-15T00:31:48;98340.84;;;5.46;76.32
85319;BME280;75722;49.004;12.120;2024-02-15T00:34:15;98335.31;;;5.48;76.30
85319;BME280;75722;49.004;12.120;2024-02-15T00:36:44;98330.69;;;5.40;76.52
85319;BME280;75722;49.004;12.120;2024-02-15T00:39:10;98323.09;;;5.35;76.79
85319;BME280;75722;49.004;12.120;2024-02-15T00:41:37;98335.81;;;5.33;76.92
85319;BME280;75722;49.004;12.120;2024-02-15T00:44:02;98332.13;;;5.34;76.76
85319;BME280;75722;49.004;12.120;2024-02-15T00:46:29;98334.13;;;5.32;76.90
85319;BME280;75722;49.004;12.120;2024-02-15T00:48:55;98337.69;;;5.33;76.93
85319;BME280;75722;49.004;12.120;2024-02-15T00:51:20;98327.47;;;5.36;76.71
85319;BME280;75722;49.004;12.120;2024-02-15T00:53:46;98328.16;;;5.38;76.66
85319;BME280;75722;49.004;12.120;2024-02-15T00:56:11;98325.03;;;5.43;76.43
85319;BME280;75722;49.004;12.120;2024-02-15T00:58:36;98324.72;;;5.46;76.50
85319;BME280;75722;49.004;12.120;2024-02-15T01:01:02;98321.88;;;5.48;76.81
85319;BME280;75722;49.004;12.120;2024-02-15T01:03:27;98325.09;;;5.51;76.34
85319;BME280;75722;49.004;12.120;2024-02-15T01:05:52;98330.91;;;5.57;76.35
85319;BME280;75722;49.004;12.120;2024-02-15T01:08:18;98327.50;;;5.55;76.12
85319;BME280;75722;49.004;12.120;2024-02-15T01:10:43;98324.13;;;5.52;76.23
85319;BME280;75722;49.004;12.120;2024-02-15T01:13:08;98319.59;;;5.53;76.29
85319;BME280;75722;49.004;12.120;2024-02-15T01:15:34;98321.88;;;5.48;76.42
85319;BME280;75722;49.004;12.120;2024-02-15T01:18:02;98310.56;;;5.54;76.16
85319;BME280;75722;49.004;12.120;2024-02-15T01:20:28;98310.22;;;5.57;76.45
85319;BME280;75722;49.004;12.120;2024-02-15T01:22:53;98315.00;;;5.63;76.63
85319;BME280;75722;49.004;12.120;2024-02-15T01:25:18;98325.09;;;5.51;76.34
85319;BME280;75722;49.004;12.120;2024-02-15T01:27:44;98313.38;;;5.52;76.28
85319;BME280;75722;49.004;12.120;2024-02-15T01:30:09;98313.06;;;5.56;76.49
85319;BME280;75722;49.004;12.120;2024-02-15T01:32:35;98308.78;;;5.63;77.12
85319;BME280;75722;49.004;12.120;2024-02-15T01:35:02;98311.09;;;5.58;76.30
85319;BME280;75722;49.004;12.120;2024-02-15T01:37:28;98307.31;;;5.69;75.94
85319;BME280;75722;49.004;12.120;2024-02-15T01:39:53;98303.16;;;5.56;76.11
85319;BME280;75722;49.004;12.120;2024-02-15T01:42:18;98312.81;;;5.49;76.15
85319;BME280;75722;49.004;12.120;2024-02-15T01:44:44;98306.00;;;5.55;76.26
85319;BME280;75722;49.004;12.120;2024-02-15T01:47:10;98304.41;;;5.62;75.92
85319;BME280;75722;49.004;12.120;2024-02-15T01:49:36;98309.00;;;5.51;76.49
85319;BME280;75722;49.004;12.120;2024-02-15T01:52:02;98309.94;;;5.60;76.56
85319;BME280;75722;49.004;12.120;2024-02-15T01:54:30;98314.63;;;5.58;76.20
85319;BME280;75722;49.004;12.120;2024-02-15T01:56:57;98317.31;;;5.58;76.04
85319;BME280;75722;49.004;12.120;2024-02-15T01:59:23;98314.78;;;5.57;75.89
85319;BME280;75722;49.004;12.120;2024-02-15T02:01:48;98316.25;;;5.69;75.52
85319;BME280;75722;49.004;12.120;2024-02-15T02:04:15;98314.84;;;5.65;75.60
85319;BME280;75722;49.004;12.120;2024-02-15T02:06:40;98308.25;;;5.59;75.81
85319;BME280;75722;49.004;12.120;2024-02-15T02:09:06;98305.03;;;5.74;75.41
85319;BME280;75722;49.004;12.120;2024-02-15T02:11:35;98297.13;;;5.72;75.87
85319;BME280;75722;49.004;12.120;2024-02-15T02:14:01;98300.28;;;5.68;75.86
85319;BME280;75722;49.004;12.120;2024-02-15T02:16:27;98297.59;;;5.68;75.49
85319;BME280;75722;49.004;12.120;2024-02-15T02:18:56;98299.34;;;5.59;75.92
85319;BME280;75722;49.004;12.120;2024-02-15T02:21:23;98291.97;;;5.61;75.89
85319;BME280;75722;49.004;12.120;2024-02-15T02:23:52;98299.59;;;5.65;75.55
85319;BME280;75722;49.004;12.120;2024-02-15T02:26:20;98291.53;;;5.65;75.88
85319;BME280;75722;49.004;12.120;2024-02-15T02:28:46;98293.22;;;5.67;75.91
85319;BME280;75722;49.004;12.120;2024-02-15T02:31:12;98291.97;;;5.61;76.14
85319;BME280;75722;49.004;12.120;2024-02-15T02:33:37;98287.13;;;5.64;76.24
85319;BME280;75722;49.004;12.120;2024-02-15T02:36:02;98294.91;;;5.68;75.83
85319;BME280;75722;49.004;12.120;2024-02-15T02:38:28;98288.84;;;5.65;75.95
85319;BME280;75722;49.004;12.120;2024-02-15T02:40:53;98282.16;;;5.70;76.06
85319;BME280;75722;49.004;12.120;2024-02-15T02:43:18;98282.53;;;5.75;75.96
85319;BME280;75722;49.004;12.120;2024-02-15T02:45:44;98285.31;;;5.65;75.94
85319;BME280;75722;49.004;12.120;2024-02-15T02:48:11;98296.56;;;5.69;75.84
85319;BME280;75722;49.004;12.120;2024-02-15T02:50:37;98289.22;;;5.71;75.75
85319;BME280;75722;49.004;12.120;2024-02-15T02:53:03;98289.53;;;5.68;76.02
85319;BME280;75722;49.004;12.120;2024-02-15T02:55:28;98292.50;;;5.64;76.40
85319;BME280;75722;49.004;12.120;2024-02-15T02:57:53;98287.13;;;5.64;76.39
85319;BME280;75722;49.004;12.120;2024-02-15T03:00:20;98290.81;;;5.63;76.39
85319;BME280;75722;49.004;12.120;2024-02-15T03:02:47;98301.94;;;5.69;76.09
85319;BME280;75722;49.004;12.120;2024-02-15T03:05:13;98296.84;;;5.75;75.86
85319;BME280;75722;49.004;12.120;2024-02-15T03:07:39;98292.50;;;5.64;76.20
85319;BME280;75722;49.004;12.120;2024-02-15T03:10:08;98289.00;;;5.64;76.25
85319;BME280;75722;49.004;12.120;2024-02-15T03:12:34;98291.28;;;5.59;76.85
85319;BME280;75722;49.004;12.120;2024-02-15T03:15:01;98283.47;;;5.65;76.76
85319;BME280;75722;49.004;12.120;2024-02-15T03:17:27;98294.59;;;5.71;76.40
85319;BME280;75722;49.004;12.120;2024-02-15T03:19:52;98286.47;;;5.62;76.16
85319;BME280;75722;49.004;12.120;2024-02-15T03:22:18;98288.84;;;5.65;76.49
85319;BME280;75722;49.004;12.120;2024-02-15T03:24:43;98283.78;;;5.62;76.56
85319;BME280;75722;49.004;12.120;2024-02-15T03:27:09;98293.50;;;5.63;76.58
85319;BME280;75722;49.004;12.120;2024-02-15T03:29:38;98288.06;;;5.73;76.87
85319;BME280;75722;49.004;12.120;2024-02-15T03:32:03;98293.50;;;5.63;76.83
85319;BME280;75722;49.004;12.120;2024-02-15T03:34:30;98288.44;;;5.60;76.60
85319;BME280;75722;49.004;12.120;2024-02-15T03:36:56;98285.16;;;5.67;77.26
85319;BME280;75722;49.004;12.120;2024-02-15T03:39:21;98294.72;;;5.51;76.77
85319;BME280;75722;49.004;12.120;2024-02-15T03:41:48;98292.28;;;5.58;77.27
85319;BME280;75722;49.004;12.120;2024-02-15T03:44:14;98290.03;;;5.53;76.76
85319;BME280;75722;49.004;12.120;2024-02-15T03:46:40;98301.88;;;5.60;76.73
85319;BME280;75722;49.004;12.120;2024-02-15T03:49:05;98295.50;;;5.61;76.53
85319;BME280;75722;49.004;12.120;2024-02-15T03:51:31;98296.66;;;5.59;77.29
85319;BME280;75722;49.004;12.120;2024-02-15T03:53:57;98300.50;;;5.56;77.02
85319;BME280;75722;49.004;12.120;2024-02-15T03:56:23;98300.63;;;5.55;77.11
85319;BME280;75722;49.004;12.120;2024-02-15T03:58:48;98301.19;;;5.58;76.92
85319;BME280;75722;49.004;12.120;2024-02-15T04:01:15;98309.25;;;5.58;76.81
85319;BME280;75722;49.004;12.120;2024-02-15T04:03:41;98308.53;;;5.56;76.82
85319;BME280;75722;49.004;12.120;2024-02-15T04:06:06;98307.25;;;5.60;77.29
85319;BME280;75722;49.004;12.120;2024-02-15T04:08:31;98296.66;;;5.59;77.38
85319;BME280;75722;49.004;12.120;2024-02-15T04:10:57;98307.94;;;5.62;77.67
85319;BME280;75722;49.004;12.120;2024-02-15T04:13:23;98305.72;;;5.58;76.70
85319;BME280;75722;49.004;12.120;2024-02-15T04:15:49;98299.41;;;5.49;76.91
85319;BME280;75722;49.004;12.120;2024-02-15T04:18:15;98300.63;;;5.55;76.92
85319;BME280;75722;49.004;12.120;2024-02-15T04:20:43;98299.63;;;5.56;76.75
85319;BME280;75722;49.004;12.120;2024-02-15T04:23:10;98300.50;;;5.56;76.53
85319;BME280;75722;49.004;12.120;2024-02-15T04:25:35;98298.50;;;5.58;76.86
85319;BME280;75722;49.004;12.120;2024-02-15T04:28:01;98299.47;;;5.57;76.58
85319;BME280;75722;49.004;12.120;2024-02-15T04:30:29;98301.19;;;5.58;76.54
85319;BME280;75722;49.004;12.120;2024-02-15T04:32:55;98289.34;;;5.51;76.94
85319;BME280;75722;49.004;12.120;2024-02-15T04:35:20;98289.66;;;5.48;76.92
85319;BME280;75722;49.004;12.120;2024-02-15T04:37:46;98290.19;;;5.51;76.98
85319;BME280;75722;49.004;12.120;2024-02-15T04:40:13;98284.59;;;5.63;76.64
85319;BME280;75722;49.004;12.120;2024-02-15T04:42:39;98292.28;;;5.58;76.75
85319;BME280;75722;49.004;12.120;2024-02-15T04:45:10;98284.75;;;5.61;76.77
85319;BME280;75722;49.004;12.120;2024-02-15T04:47:37;98286.97;;;5.66;76.41
85319;BME280;75722;49.004;12.120;2024-02-15T04:50:04;98291.34;;;5.67;76.84
85319;BME280;75722;49.004;12.120;2024-02-15T04:52:31;98301.81;;;5.70;76.49
85319;BME280;75722;49.004;12.120;2024-02-15T04:54:56;98292.91;;;5.70;76.51
85319;BME280;75722;49.004;12.120;2024-02-15T04:57:24;98292.59;;;5.73;76.32
85319;BME280;75722;49.004;12.120;2024-02-15T04:59:51;98295.34;;;5.63;76.24
85319;BME280;75722;49.004;12.120;2024-02-15T05:02:16;98298.59;;;5.67;76.20
85319;BME280;75722;49.004;12.120;2024-02-15T05:04:45;98294.75;;;5.69;75.88
85319;BME280;75722;49.004;12.120;2024-02-15T05:07:10;98289.22;;;5.71;76.08
85319;BME280;75722;49.004;12.120;2024-02-15T05:09:36;98292.22;;;5.68;76.03
85319;BME280;75722;49.004;12.120;2024-02-15T05:12:01;98294.59;;;5.71;76.10
85319;BME280;75722;49.004;12.120;2024-02-15T05:14:29;98286.69;;;5.69;75.44
85319;BME280;75722;49.004;12.120;2024-02-15T05:16:55;98295.97;;;5.75;76.15
85319;BME280;75722;49.004;12.120;2024-02-15T05:19:20;98293.22;;;5.67;76.03
85319;BME280;75722;49.004;12.120;2024-02-15T05:21:46;98286.47;;;5.62;75.89
85319;BME280;75722;49.004;12.120;2024-02-15T05:24:15;98296.66;;;5.59;76.07
85319;BME280;75722;49.004;12.120;2024-02-15T05:26:43;98298.19;;;5.61;75.94
85319;BME280;75722;49.004;12.120;2024-02-15T05:29:10;98303.25;;;5.64;75.97
85319;BME280;75722;49.004;12.120;2024-02-15T05:31:36;98297.22;;;5.62;75.94
85319;BME280;75722;49.004;12.120;2024-02-15T05:34:04;98294.66;;;5.61;75.66
85319;BME280;75722;49.004;12.120;2024-02-15T05:36:30;98294.91;;;5.68;75.90
85319;BME280;75722;49.004;12.120;2024-02-15T05:38:56;98286.16;;;5.65;75.65
85319;BME280;75722;49.004;12.120;2024-02-15T05:41:22;98298.28;;;5.70;76.04
85319;BME280;75722;49.004;12.120;2024-02-15T05:43:47;98294.03;;;5.67;75.75
85319;BME280;75722;49.004;12.120;2024-02-15T05:46:19;98300.56;;;5.64;75.81
85319;BME280;75722;49.004;12.120;2024-02-15T05:48:46;98291.34;;;5.67;75.74
85319;BME280;75722;49.004;12.120;2024-02-15T05:51:12;98290.69;;;5.65;75.66
85319;BME280;75722;49.004;12.120;2024-02-15T05:53:37;98303.66;;;5.70;76.14
85319;BME280;75722;49.004;12.120;2024-02-15T05:56:04;98292.06;;;5.69;75.87
85319;BME280;75722;49.004;12.120;2024-02-15T05:58:31;98293.44;;;5.73;75.66
85319;BME280;75722;49.004;12.120;2024-02-15T06:00:57;98297.28;;;5.71;75.74
85319;BME280;75722;49.004;12.120;2024-02-15T06:03:27;98291.53;;;5.65;75.83
85319;BME280;75722;49.004;12.120;2024-02-15T06:05:52;98293.44;;;5.73;75.94
85319;BME280;75722;49.004;12.120;2024-02-15T06:08:23;98294.16;;;5.75;75.55
85319;BME280;75722;49.004;12.120;2024-02-15T06:10:48;98295.81;;;5.76;75.62
85319;BME280;75722;49.004;12.120;2024-02-15T06:13:13;98305.56;;;5.77;75.51
85319;BME280;75722;49.004;12.120;2024-02-15T06:15:39;98302.34;;;5.74;75.16
85319;BME280;75722;49.004;12.120;2024-02-15T06:18:04;98307.09;;;5.80;75.22
85319;BME280;75722;49.004;12.120;2024-02-15T06:20:34;98312.47;;;5.80;75.94
85319;BME280;75722;49.004;12.120;2024-02-15T06:23:00;98301.66;;;5.72;75.97
85319;BME280;75722;49.004;12.120;2024-02-15T06:25:27;98309.78;;;5.80;75.69
85319;BME280;75722;49.004;12.120;2024-02-15T06:27:52;98304.19;;;5.73;75.95
85319;BME280;75722;49.004;12.120;2024-02-15T06:30:23;98305.03;;;5.74;76.27
85319;BME280;75722;49.004;12.120;2024-02-15T06:33:07;98305.19;;;5.90;75.70
85319;BME280;75722;49.004;12.120;2024-02-15T06:35:51;98306.19;;;5.89;75.76
85319;BME280;75722;49.004;12.120;2024-02-15T06:38:35;98303.50;;;5.89;75.52
85319;BME280;75722;49.004;12.120;2024-02-15T06:41:19;98314.25;;;5.89;76.04
85319;BME280;75722;49.004;12.120;2024-02-15T06:43:44;98317.03;;;5.98;75.64
85319;BME280;75722;49.004;12.120;2024-02-15T06:46:09;98310.78;;;5.97;75.30
85319;BME280;75722;49.004;12.120;2024-02-15T06:48:36;98323.72;;;5.94;75.59
85319;BME280;75722;49.004;12.120;2024-02-15T06:51:02;98326.78;;;5.99;75.25
85319;BME280;75722;49.004;12.120;2024-02-15T06:53:28;98326.78;;;5.99;75.84
85319;BME280;75722;49.004;12.120;2024-02-15T06:55:54;98323.06;;;6.10;75.31
85319;BME280;75722;49.004;12.120;2024-02-15T06:58:19;98325.47;;;6.03;75.49
85319;BME280;75722;49.004;12.120;2024-02-15T07:00:45;98323.78;;;6.02;75.68
85319;BME280;75722;49.004;12.120;2024-02-15T07:03:11;98320.09;;;6.03;75.67
85319;BME280;75722;49.004;12.120;2024-02-15T07:05:37;98326.56;;;6.10;75.58
85319;BME280;75722;49.004;12.120;2024-02-15T07:08:07;98325.41;;;6.13;75.25
85319;BME280;75722;49.004;12.120;2024-02-15T07:10:37;98327.28;;;6.12;75.46
85319;BME280;75722;49.004;12.120;2024-02-15T07:13:03;98338.72;;;6.14;75.05
85319;BME280;75722;49.004;12.120;2024-02-15T07:15:29;98336.25;;;6.21;75.80
85319;BME280;75722;49.004;12.120;2024-02-15T07:17:57;98334.41;;;6.22;75.24
85319;BME280;75722;49.004;12.120;2024-02-15T07:20:23;98336.78;;;6.25;75.02
85319;BME280;75722;49.004;12.120;2024-02-15T07:22:48;98335.16;;;6.32;75.39
85319;BME280;75722;49.004;12.120;2024-02-15T07:25:13;98334.88;;;6.35;75.75
85319;BME280;75722;49.004;12.120;2024-02-15T07:27:39;98332.31;;;6.34;74.72
85319;BME280;75722;49.004;12.120;2024-02-15T07:30:05;98329.25;;;6.47;74.05
85319;BME280;75722;49.004;12.120;2024-02-15T07:32:33;98330.66;;;6.33;74.63
85319;BME280;75722;49.004;12.120;2024-02-15T07:35:00;98322.63;;;6.41;74.90
85319;BME280;75722;49.004;12.120;2024-02-15T07:37:26;98326.75;;;6.53;74.88
85319;BME280;75722;49.004;12.120;2024-02-15T07:39:54;98335.31;;;6.75;75.04
85319;BME280;75722;49.004;12.120;2024-02-15T07:42:19;98325.03;;;6.71;73.39
85319;BME280;75722;49.004;12.120;2024-02-15T07:44:45;98330.66;;;6.86;73.66
85319;BME280;75722;49.004;12.120;2024-02-15T07:47:10;98332.25;;;6.97;73.44
85319;BME280;75722;49.004;12.120;2024-02-15T07:49:36;98324.53;;;7.02;73.06
85319;BME280;75722;49.004;12.120;2024-02-15T07:52:02;98328.84;;;7.21;72.78
85319;BME280;75722;49.004;12.120;2024-02-15T07:54:29;98319.75;;;7.65;70.96
85319;BME280;75722;49.004;12.120;2024-02-15T07:56:56;98316.09;;;8.08;69.33
85319;BME280;75722;49.004;12.120;2024-02-15T07:59:21;98321.50;;;8.33;68.99
85319;BME280;75722;49.004;12.120;2024-02-15T08:01:46;98316.63;;;8.53;68.39
85319;BME280;75722;49.004;12.120;2024-02-15T08:04:15;98323.03;;;8.60;68.00
85319;BME280;75722;49.004;12.120;2024-02-15T08:06:40;98322.00;;;8.87;68.15
85319;BME280;75722;49.004;12.120;2024-02-15T08:09:06;98316.06;;;9.00;67.44
85319;BME280;75722;49.004;12.120;2024-02-15T08:11:32;98309.91;;;9.22;65.24
85319;BME280;75722;49.004;12.120;2024-02-15T08:13:57;98307.78;;;9.49;64.79
85319;BME280;75722;49.004;12.120;2024-02-15T08:16:25;98307.41;;;10.08;63.71
85319;BME280;75722;49.004;12.120;2024-02-15T08:18:53;98299.59;;;10.60;62.39
85319;BME280;75722;49.004;12.120;2024-02-15T08:21:26;98298.66;;;11.13;60.44
85319;BME280;75722;49.004;12.120;2024-02-15T08:23:52;98297.38;;;11.24;60.39
85319;BME280;75722;49.004;12.120;2024-02-15T08:26:17;98296.06;;;10.89;60.54
85319;BME280;75722;49.004;12.120;2024-02-15T08:28:42;98291.38;;;10.83;60.45
85319;BME280;75722;49.004;12.120;2024-02-15T08:31:08;98280.00;;;11.92;58.28
85319;BME280;75722;49.004;12.120;2024-02-15T08:33:35;98277.63;;;12.48;56.65
85319;BME280;75722;49.004;12.120;2024-02-15T08:36:01;98277.56;;;13.96;53.28
85319;BME280;75722;49.004;12.120;2024-02-15T08:38:27;98274.69;;;17.06;46.48
85319;BME280;75722;49.004;12.120;2024-02-15T08:40:53;98277.09;;;16.45;47.03
85319;BME280;75722;49.004;12.120;2024-02-15T08:43:18;98285.09;;;13.94;51.76
85319;BME280;75722;49.004;12.120;2024-02-15T08:45:43;98280.81;;;13.64;53.12
85319;BME280;75722;49.004;12.120;2024-02-15T08:48:10;98286.84;;;13.17;53.99
85319;BME280;75722;49.004;12.120;2024-02-15T08:50:35;98287.09;;;12.87;54.75
85319;BME280;75722;49.004;12.120;2024-02-15T08:53:01;98282.47;;;12.52;55.46
85319;BME280;75722;49.004;12.120;2024-02-15T08:55:30;98274.69;;;13.06;54.64
85319;BME280;75722;49.004;12.120;2024-02-15T08:57:58;98271.28;;;13.95;52.73
85319;BME280;75722;49.004;12.120;2024-02-15T09:00:24;98266.47;;;13.97;52.59
85319;BME280;75722;49.004;12.120;2024-02-15T09:02:51;98269.63;;;14.08;52.36
85319;BME280;75722;49.004;12.120;2024-02-15T09:05:18;98270.69;;;14.27;51.68
85319;BME280;75722;49.004;12.120;2024-02-15T09:07:45;98255.56;;;15.58;49.34
85319;BME280;75722;49.004;12.120;2024-02-15T09:10:14;98264.47;;;15.79;48.16
85319;BME280;75722;49.004;12.120;2024-02-15T09:12:43;98259.53;;;17.03;45.82
85319;BME280;75722;49.004;12.120;2024-02-15T09:15:10;98269.41;;;17.91;44.94
85319;BME280;75722;49.004;12.120;2024-02-15T09:17:39;98265.91;;;20.29;39.87
85319;BME280;75722;49.004;12.120;2024-02-15T09:22:32;98255.16;;;21.80;36.69
85319;BME280;75722;49.004;12.120;2024-02-15T09:24:57;98269.00;;;22.46;36.33
85319;BME280;75722;49.004;12.120;2024-02-15T09:27:23;98257.25;;;21.50;36.62
85319;BME280;75722;49.004;12.120;2024-02-15T09:29:48;98255.16;;;22.35;36.44
85319;BME280;75722;49.004;12.120;2024-02-15T09:32:13;98249.63;;;23.60;34.18
85319;BME280;75722;49.004;12.120;2024-02-15T09:34:39;98248.38;;;24.14;33.46
85319;BME280;75722;49.004;12.120;2024-02-15T09:37:06;98247.75;;;23.81;33.80
85319;BME280;75722;49.004;12.120;2024-02-15T09:39:31;98256.00;;;23.76;33.55
85319;BME280;75722;49.004;12.120;2024-02-15T09:41:57;98252.25;;;22.85;35.23
85319;BME280;75722;49.004;12.120;2024-02-15T09:44:26;98248.13;;;24.37;32.83
85319;BME280;75722;49.004;12.120;2024-02-15T09:47:05;98244.75;;;25.07;32.39
85319;BME280;75722;49.004;12.120;2024-02-15T09:49:35;98246.06;;;26.42;30.27
85319;BME280;75722;49.004;12.120;2024-02-15T09:52:03;98244.16;;;25.92;31.22
85319;BME280;75722;49.004;12.120;2024-02-15T09:54:30;98248.88;;;25.92;30.76
85319;BME280;75722;49.004;12.120;2024-02-15T09:56:56;98240.75;;;25.45;31.29
85319;BME280;75722;49.004;12.120;2024-02-15T09:59:23;98246.72;;;24.96;31.79
85319;BME280;75722;49.004;12.120;2024-02-15T10:01:48;98252.72;;;22.44;36.07
85319;BME280;75722;49.004;12.120;2024-02-15T10:04:14;98242.25;;;21.86;36.76
85319;BME280;75722;49.004;12.120;2024-02-15T10:06:42;98241.22;;;22.52;36.53
85319;BME280;75722;49.004;12.120;2024-02-15T10:09:26;98239.25;;;23.34;34.94
85319;BME280;75722;49.004;12.120;2024-02-15T10:12:00;98228.66;;;25.20;32.23
85319;BME280;75722;49.004;12.120;2024-02-15T10:14:29;98231.78;;;26.19;30.26
85319;BME280;75722;49.004;12.120;2024-02-15T10:16:55;98238.59;;;25.26;32.33
85319;BME280;75722;49.004;12.120;2024-02-15T10:19:21;98238.47;;;26.53;30.48
85319;BME280;75722;49.004;12.120;2024-02-15T10:21:54;98234.06;;;27.99;28.66
85319;BME280;75722;49.004;12.120;2024-02-15T10:24:23;98238.31;;;28.82;27.55
85319;BME280;75722;49.004;12.120;2024-02-15T10:26:50;98230.34;;;29.65;26.95
85319;BME280;75722;49.004;12.120;2024-02-15T10:29:16;98230.81;;;27.91;28.61
85319;BME280;75722;49.004;12.120;2024-02-15T10:31:53;98231.53;;;29.73;27.09
85319;BME280;75722;49.004;12.120;2024-02-15T10:34:20;98221.56;;;29.94;26.91
85319;BME280;75722;49.004;12.120;2024-02-15T10:36:45;98221.47;;;30.68;25.57
85319;BME280;75722;49.004;12.120;2024-02-15T10:39:14;98224.13;;;30.42;25.79
85319;BME280;75722;49.004;12.120;2024-02-15T10:41:52;98212.38;;;30.77;25.25
85319;BME280;75722;49.004;12.120;2024-02-15T10:44:23;98216.72;;;30.92;25.43
85319;BME280;75722;49.004;12.120;2024-02-15T10:46:50;98213.88;;;31.23;25.12
85319;BME280;75722;49.004;12.120;2024-02-15T10:49:23;98205.59;;;29.86;25.75
85319;BME280;75722;49.004;12.120;2024-02-15T10:51:55;98200.19;;;28.97;27.01
85319;BME280;75722;49.004;12.120;2024-02-15T10:54:40;98196.84;;;29.51;27.00
85319;BME280;75722;49.004;12.120;2024-02-15T10:57:10;98196.03;;;31.42;24.36
85319;BME280;75722;49.004;12.120;2024-02-15T10:59:37;98193.25;;;31.60;24.33
85319;BME280;75722;49.004;12.120;2024-02-15T11:02:27;98179.81;;;29.52;26.77
85319;BME280;75722;49.004;12.120;2024-02-15T11:04:55;98176.34;;;31.07;24.80
85319;BME280;75722;49.004;12.120;2024-02-15T11:07:27;98183.53;;;29.99;26.27
85319;BME280;75722;49.004;12.120;2024-02-15T11:09:53;98164.44;;;30.92;25.53
85319;BME280;75722;49.004;12.120;2024-02-15T11:12:22;98163.16;;;32.36;23.96
85319;BME280;75722;49.004;12.120;2024-02-15T11:14:48;98167.59;;;32.46;23.67
85319;BME280;75722;49.004;12.120;2024-02-15T11:20:05;98151.81;;;32.15;23.69
85319;BME280;75722;49.004;12.120;2024-02-15T11:22:34;98155.19;;;30.83;25.04
85319;BME280;75722;49.004;12.120;2024-02-15T11:25:03;98144.69;;;31.56;24.76
85319;BME280;75722;49.004;12.120;2024-02-15T11:27:37;98144.66;;;32.44;23.48
85319;BME280;75722;49.004;12.120;2024-02-15T11:30:05;98134.38;;;32.09;23.76
85319;BME280;75722;49.004;12.120;2024-02-15T11:32:46;98135.81;;;31.80;24.21
85319;BME280;75722;49.004;12.120;2024-02-15T11:35:22;98132.31;;;33.32;22.88
85319;BME280;75722;49.004;12.120;2024-02-15T11:37:51;98119.03;;;31.54;23.76
85319;BME280;75722;49.004;12.120;2024-02-15T11:40:26;98120.50;;;31.60;24.05
85319;BME280;75722;49.004;12.120;2024-02-15T11:43:00;98123.75;;;30.45;25.55
85319;BME280;75722;49.004;12.120;2024-02-15T11:45:26;98107.69;;;32.12;23.96
85319;BME280;75722;49.004;12.120;2024-02-15T11:47:58;98111.47;;;30.87;24.87
85319;BME280;75722;49.004;12.120;2024-02-15T11:50:24;98111.97;;;32.00;24.07
85319;BME280;75722;49.004;12.120;2024-02-15T11:52:51;98109.63;;;29.73;26.54
85319;BME280;75722;49.004;12.120;2024-02-15T11:55:23;98107.81;;;29.54;26.26
85319;BME280;75722;49.004;12.120;2024-02-15T11:57:58;98113.34;;;29.68;26.41
85319;BME280;75722;49.004;12.120;2024-02-15T12:00:31;98108.88;;;28.13;28.29
85319;BME280;75722;49.004;12.120;2024-02-15T12:03:16;98099.94;;;29.05;27.09
85319;BME280;75722;49.004;12.120;2024-02-15T12:06:01;98092.94;;;28.94;27.58
85319;BME280;75722;49.004;12.120;2024-02-15T12:08:48;98091.16;;;28.70;27.54
85319;BME280;75722;49.004;12.120;2024-02-15T12:11:33;98082.34;;;27.49;28.82
85319;BME280;75722;49.004;12.120;2024-02-15T12:14:18;98088.34;;;27.56;29.04
85319;BME280;75722;49.004;12.120;2024-02-15T12:17:10;98080.13;;;28.79;27.68
85319;BME280;75722;49.004;12.120;2024-02-15T12:19:55;98074.25;;;28.05;28.60
85319;BME280;75722;49.004;12.120;2024-02-15T12:22:51;98079.88;;;25.71;31.30
85319;BME280;75722;49.004;12.120;2024-02-15T12:25:17;98077.13;;;26.30;30.55
85319;BME280;75722;49.004;12.120;2024-02-15T12:27:46;98073.25;;;26.26;31.01
85319;BME280;75722;49.004;12.120;2024-02-15T12:32:46;98069.50;;;25.42;32.51
85319;BME280;75722;49.004;12.120;2024-02-15T12:35:14;98061.41;;;23.51;35.06
85319;BME280;75722;49.004;12.120;2024-02-15T12:37:48;98059.72;;;21.46;38.23
85319;BME280;75722;49.004;12.120;2024-02-15T12:40:17;98061.03;;;21.71;37.93
85319;BME280;75722;49.004;12.120;2024-02-15T12:42:43;98056.94;;;20.68;39.73
85319;BME280;75722;49.004;12.120;2024-02-15T12:45:19;98052.50;;;19.88;41.16
85319;BME280;75722;49.004;12.120;2024-02-15T12:47:52;98046.31;;;20.32;40.62
85319;BME280;75722;49.004;12.120;2024-02-15T12:50:18;98044.78;;;20.02;41.43
85319;BME280;75722;49.004;12.120;2024-02-15T12:52:46;98046.59;;;19.45;42.28
85319;BME280;75722;49.004;12.120;2024-02-15T12:55:13;98046.28;;;18.71;43.95
85319;BME280;75722;49.004;12.120;2024-02-15T12:57:40;98035.91;;;19.02;43.71
85319;BME280;75722;49.004;12.120;2024-02-15T13:00:08;98038.78;;;18.66;43.99
85319;BME280;75722;49.004;12.120;2024-02-15T13:02:39;98035.06;;;19.02;43.21
85319;BME280;75722;49.004;12.120;2024-02-15T13:05:06;98028.84;;;20.04;42.02
85319;BME280;75722;49.004;12.120;2024-02-15T13:07:36;98023.94;;;20.68;40.82